createdAt,value
2018-11-29T00:01:02.791Z,8.80
2018-11-29T00:06:12.337Z,8.70
2018-11-29T00:11:21.948Z,8.70
2018-11-29T00:16:31.347Z,8.70
2018-11-29T00:21:40.820Z,8.70
2018-11-29T00:26:50.416Z,8.70
2018-11-29T00:31:59.940Z,8.70
2018-11-29T00:37:09.305Z,8.70
2018-11-29T00:42:18.896Z,8.70
2018-11-29T00:47:28.479Z,8.70
2018-11-29T00:52:39.801Z,8.70
2018-11-29T00:57:49.235Z,8.90
2018-11-29T01:02:58.811Z,9.00
2018-11-29T01:08:08.359Z,8.80
2018-11-29T01:13:17.747Z,9.00
2018-11-29T01:18:27.387Z,8.80
2018-11-29T01:23:36.871Z,8.90
2018-11-29T01:28:46.380Z,8.80
2018-11-29T01:33:55.996Z,8.90
2018-11-29T01:39:08.449Z,8.90
2018-11-29T01:44:17.892Z,8.90
2018-11-29T01:49:27.471Z,9.10
2018-11-29T01:54:37.148Z,9.10
2018-11-29T01:59:46.883Z,9.10
2018-11-29T02:04:56.407Z,9.20
2018-11-29T02:10:15.472Z,9.20
2018-11-29T02:15:24.858Z,9.30
2018-11-29T02:20:34.337Z,9.20
2018-11-29T02:25:43.959Z,9.30
2018-11-29T02:30:53.569Z,9.20
2018-11-29T02:36:03.080Z,9.10
2018-11-29T02:41:12.546Z,9.00
2018-11-29T02:46:22.200Z,9.10
2018-11-29T02:51:31.779Z,9.10
2018-11-29T02:56:41.248Z,9.10
2018-11-29T03:01:50.992Z,9.20
2018-11-29T03:07:00.804Z,9.20
2018-11-29T03:12:10.313Z,9.30
2018-11-29T03:17:19.785Z,9.20
2018-11-29T03:22:29.258Z,9.20
2018-11-29T03:27:38.856Z,9.30
2018-11-29T03:32:48.474Z,9.20
2018-11-29T03:37:57.882Z,9.20
2018-11-29T03:43:07.614Z,9.20
2018-11-29T03:48:17.038Z,9.30
2018-11-29T03:53:26.963Z,9.20
2018-11-29T03:58:36.524Z,9.20
2018-11-29T04:03:46.133Z,9.20
2018-11-29T04:08:55.936Z,9.10
2018-11-29T04:14:05.860Z,9.10
2018-11-29T04:19:15.395Z,8.90
2018-11-29T04:24:24.877Z,8.90
2018-11-29T04:29:34.583Z,8.90
2018-11-29T04:34:44.155Z,8.80
2018-11-29T04:39:53.724Z,9.00
2018-11-29T04:45:03.324Z,8.90
2018-11-29T04:50:12.783Z,8.80
2018-11-29T04:55:22.174Z,8.80
2018-11-29T05:00:31.636Z,8.80
2018-11-29T05:05:41.348Z,8.80
2018-11-29T05:10:51.021Z,8.70
2018-11-29T05:16:00.511Z,8.60
2018-11-29T05:21:09.907Z,8.70
2018-11-29T05:26:19.555Z,8.60
2018-11-29T05:31:28.970Z,8.60
2018-11-29T05:36:38.487Z,8.60
2018-11-29T05:41:47.905Z,10.40
2018-11-29T05:46:57.275Z,8.50
2018-11-29T05:52:06.741Z,8.40
2018-11-29T05:57:16.449Z,8.40
2018-11-29T06:02:26.674Z,8.30
2018-11-29T06:07:36.300Z,8.30
2018-11-29T06:12:46.098Z,8.40
2018-11-29T06:17:55.686Z,8.40
2018-11-29T06:23:05.715Z,8.20
2018-11-29T06:28:15.311Z,8.00
2018-11-29T06:33:24.865Z,8.00
2018-11-29T06:38:34.329Z,8.00
2018-11-29T06:43:43.925Z,8.10
2018-11-29T06:48:53.446Z,8.10
2018-11-29T06:54:03.121Z,8.10
2018-11-29T06:59:12.783Z,8.00
2018-11-29T07:04:22.513Z,8.00
2018-11-29T07:09:32.035Z,8.00
2018-11-29T07:14:41.432Z,8.00
2018-11-29T07:19:51.048Z,8.00
2018-11-29T07:25:00.876Z,8.00
2018-11-29T07:30:12.641Z,7.90
2018-11-29T07:35:22.559Z,7.90
2018-11-29T07:40:32.115Z,7.80
2018-11-29T07:45:41.690Z,7.90
2018-11-29T07:50:51.069Z,7.80
2018-11-29T07:55:55.461Z,7.70
2018-11-29T08:00:59.359Z,7.70
2018-11-29T08:06:03.425Z,7.80
2018-11-29T08:11:07.363Z,7.80
2018-11-29T08:16:11.555Z,7.80
2018-11-29T08:21:15.460Z,7.80
2018-11-29T08:26:19.331Z,7.90
2018-11-29T08:31:23.231Z,7.80
2018-11-29T08:36:27.099Z,7.90
2018-11-29T08:41:31.108Z,7.80
2018-11-29T08:46:34.969Z,7.80
2018-11-29T08:51:38.871Z,7.80
2018-11-29T08:56:42.731Z,7.90
2018-11-29T09:01:46.635Z,7.90
2018-11-29T09:06:50.599Z,8.10
2018-11-29T09:11:54.539Z,8.20
2018-11-29T09:16:58.418Z,8.30
2018-11-29T09:22:02.399Z,8.30
2018-11-29T09:27:06.333Z,8.10
2018-11-29T09:32:10.211Z,8.00
2018-11-29T09:37:14.116Z,8.10
2018-11-29T09:42:18.080Z,8.10
2018-11-29T09:47:21.939Z,8.00
2018-11-29T09:52:25.888Z,8.00
2018-11-29T09:57:29.960Z,8.00
2018-11-29T10:02:33.844Z,8.00
2018-11-29T10:07:37.723Z,8.00
2018-11-29T10:12:41.648Z,8.00
2018-11-29T10:17:45.509Z,8.00
2018-11-29T10:22:49.396Z,8.10
2018-11-29T10:27:56.088Z,8.20
2018-11-29T10:33:00.059Z,8.10
2018-11-29T10:38:03.955Z,8.20
2018-11-29T10:43:07.950Z,8.20
2018-11-29T10:48:14.463Z,8.30
2018-11-29T10:53:18.335Z,8.30
2018-11-29T11:03:48.597Z,8.10
2018-11-29T11:14:20.485Z,8.00
2018-11-29T11:19:24.391Z,7.90
2018-11-29T11:24:28.380Z,7.80
2018-11-29T11:29:32.232Z,8.00
2018-11-29T11:34:36.226Z,8.10
2018-11-29T11:39:40.096Z,8.20
2018-11-29T11:44:44.012Z,8.30
2018-11-29T11:49:47.954Z,8.40
2018-11-29T11:54:51.855Z,8.50
2018-11-29T11:59:55.724Z,8.60
2018-11-29T12:04:59.640Z,8.70
2018-11-29T12:10:03.562Z,8.80
2018-11-29T12:15:10.057Z,8.80
2018-11-29T12:20:16.025Z,8.70
2018-11-29T12:25:20.975Z,8.80
2018-11-29T12:30:26.001Z,8.80
2018-11-29T12:35:30.140Z,8.90
2018-11-29T12:40:34.044Z,8.80
2018-11-29T12:45:38.003Z,8.90
2018-11-29T12:50:42.033Z,9.00
2018-11-29T12:55:46.137Z,9.20
2018-11-29T13:00:50.025Z,9.40
2018-11-29T13:05:53.940Z,9.40
2018-11-29T13:10:57.908Z,9.60
2018-11-29T13:16:01.854Z,9.50
2018-11-29T13:21:05.763Z,9.20
2018-11-29T13:26:09.742Z,9.20
2018-11-29T13:31:13.632Z,9.30
2018-11-29T13:36:17.600Z,9.20
2018-11-29T13:41:21.751Z,9.20
2018-11-29T13:46:25.615Z,9.30
2018-11-29T13:51:29.525Z,9.20
2018-11-29T13:56:33.470Z,9.30
2018-11-29T14:01:37.360Z,9.40
2018-11-29T14:06:41.344Z,9.30
2018-11-29T14:11:45.288Z,9.30
2018-11-29T14:16:49.196Z,9.30
2018-11-29T14:21:53.131Z,9.50
2018-11-29T14:26:57.155Z,9.50
2018-11-29T14:32:01.175Z,9.70
2018-11-29T14:37:05.084Z,9.70
2018-11-29T14:42:09.003Z,9.60
2018-11-29T14:47:12.970Z,9.50
2018-11-29T14:52:16.988Z,9.50
2018-11-29T14:57:20.883Z,9.50
2018-11-29T15:02:24.883Z,9.50
2018-11-29T15:07:29.621Z,9.50
2018-11-29T15:12:33.531Z,9.60
2018-11-29T15:17:38.514Z,9.50
2018-11-29T15:22:42.102Z,9.60
2018-11-29T15:27:46.051Z,9.60
2018-11-29T15:32:50.007Z,9.50
2018-11-29T15:37:53.945Z,9.50
2018-11-29T15:42:57.823Z,9.50
2018-11-29T15:48:01.687Z,9.60
2018-11-29T15:53:06.863Z,9.60
2018-11-29T15:58:10.927Z,9.60
2018-11-29T16:03:14.863Z,9.50
2018-11-29T16:08:18.803Z,9.60
2018-11-29T16:13:22.736Z,9.70
2018-11-29T16:18:26.756Z,9.60
2018-11-29T16:23:30.656Z,9.70
2018-11-29T16:28:34.561Z,9.70
2018-11-29T16:33:39.497Z,9.80
2018-11-29T16:38:43.553Z,9.70
2018-11-29T16:43:47.798Z,9.80
2018-11-29T16:48:51.852Z,9.70
2018-11-29T16:53:55.891Z,10.30
2018-11-29T16:58:59.896Z,9.70
2018-11-29T17:04:03.997Z,9.60
2018-11-29T17:09:09.314Z,9.60
2018-11-29T17:14:13.261Z,9.60
2018-11-29T17:19:17.196Z,9.70
2018-11-29T17:24:21.108Z,9.60
2018-11-29T17:29:24.979Z,9.60
2018-11-29T17:34:29.008Z,9.70
2018-11-29T17:39:33.064Z,9.70
2018-11-29T17:44:37.013Z,9.70
2018-11-29T17:49:40.940Z,9.80
2018-11-29T17:54:44.876Z,9.80
2018-11-29T17:59:48.903Z,9.80
2018-11-29T18:04:52.815Z,9.80
2018-11-29T18:09:56.778Z,9.80
2018-11-29T18:15:01.100Z,9.80
2018-11-29T18:20:06.555Z,9.80
2018-11-29T18:25:12.748Z,9.90
2018-11-29T18:30:17.904Z,9.80
2018-11-29T18:35:22.840Z,9.90
2018-11-29T18:40:26.787Z,9.90
2018-11-29T18:45:30.830Z,10.00
2018-11-29T18:50:34.771Z,9.90
2018-11-29T18:55:38.762Z,10.10
2018-11-29T19:00:42.771Z,10.00
2018-11-29T19:05:46.724Z,9.90
2018-11-29T19:10:50.958Z,10.10
2018-11-29T19:15:55.277Z,10.10
2018-11-29T19:21:00.006Z,10.10
2018-11-29T19:26:03.996Z,10.10
2018-11-29T19:31:09.096Z,10.10
2018-11-29T19:36:13.157Z,10.10
2018-11-29T19:41:17.122Z,10.10
2018-11-29T19:46:21.162Z,10.20
2018-11-29T19:51:25.351Z,10.20
2018-11-29T19:56:29.420Z,10.20
2018-11-29T20:01:34.873Z,10.30
2018-11-29T20:06:38.828Z,10.20
2018-11-29T20:11:43.042Z,10.20
2018-11-29T20:16:47.959Z,10.30
2018-11-29T20:21:52.079Z,10.20
2018-11-29T20:26:56.052Z,10.20
2018-11-29T20:32:01.009Z,10.20
2018-11-29T20:37:05.068Z,10.20
2018-11-29T20:42:09.025Z,10.20
2018-11-29T20:47:13.124Z,10.20
2018-11-29T20:52:17.032Z,10.30
2018-11-29T20:57:20.988Z,10.20
2018-11-29T21:02:24.939Z,10.30
2018-11-29T21:07:28.883Z,10.30
2018-11-29T21:12:33.057Z,10.30
2018-11-29T21:17:36.732Z,10.40
2018-11-29T21:22:41.483Z,10.30
2018-11-29T21:27:45.535Z,10.40
2018-11-29T21:32:49.902Z,10.50
2018-11-29T21:37:53.988Z,10.60
2018-11-29T21:42:58.084Z,10.60
2018-11-29T21:48:02.009Z,10.60
2018-11-29T21:53:05.997Z,10.60
2018-11-29T21:58:09.902Z,10.70
2018-11-29T22:03:13.813Z,10.60
2018-11-29T22:08:17.727Z,10.60
2018-11-29T22:13:21.710Z,10.60
2018-11-29T22:18:25.997Z,10.70
2018-11-29T22:23:30.874Z,10.60
2018-11-29T22:28:34.844Z,10.70
2018-11-29T22:33:38.733Z,10.70
2018-11-29T22:38:44.467Z,10.70
2018-11-29T22:43:46.606Z,10.60
2018-11-29T22:48:50.751Z,10.70
2018-11-29T22:53:54.789Z,10.60
2018-11-29T22:59:00.844Z,10.70
2018-11-29T23:04:04.835Z,10.70
2018-11-29T23:09:09.288Z,10.70
2018-11-29T23:14:13.204Z,10.70
2018-11-29T23:19:17.101Z,10.70
2018-11-29T23:24:20.995Z,10.60
2018-11-29T23:29:24.918Z,10.60
2018-11-29T23:34:28.819Z,10.60
2018-11-29T23:39:32.720Z,10.70
2018-11-29T23:44:36.663Z,10.70
2018-11-29T23:49:40.582Z,10.70
2018-11-29T23:54:44.473Z,10.60
2018-11-29T23:59:48.356Z,10.70
